Time;durP1;ratioP1;P1;durP2;ratioP2;P2;SDS_P1;SDS_P2;PMS_P1;PMS_P2;Temp;Humidity;BMP_temperature;BMP_pressure;BME280_temperature;BME280_humidity;BME280_pressure;Samples;Min_cycle;Max_cycle;Signal;HPM_P1;HPM_P2
2023/07/05 00:00:10;;;;;;;15.35;7.15;;;19.10;99.90;;;;;;5063119;23;20663;-81
2023/07/05 00:02:35;;;;;;;14.93;7.35;;;19.00;99.90;;;;;;5007555;28;20026;-80
2023/07/05 00:05:01;;;;;;;12.32;7.18;;;18.90;99.90;;;;;;5015723;28;20030;-81
2023/07/05 00:07:27;;;;;;;15.85;7.65;;;18.80;99.90;;;;;;5006697;28;20077;-80
2023/07/05 00:09:52;;;;;;;17.48;7.78;;;18.80;99.90;;;;;;5008402;28;20036;-79
2023/07/05 00:12:18;;;;;;;15.95;8.00;;;18.60;99.90;;;;;;5008041;28;20013;-80
2023/07/05 00:14:44;;;;;;;13.75;7.55;;;18.50;99.90;;;;;;5006303;28;20023;-80
2023/07/05 00:17:10;;;;;;;21.65;10.68;;;17.90;99.90;;;;;;4999902;28;20120;-80
2023/07/05 00:19:35;;;;;;;23.20;10.30;;;17.00;99.90;;;;;;5005279;28;20814;-79
2023/07/05 00:22:01;;;;;;;20.33;8.30;;;16.00;99.90;;;;;;5009190;28;20052;-79
2023/07/05 00:24:26;;;;;;;18.25;7.93;;;16.00;99.90;;;;;;5002998;28;20014;-81
2023/07/05 00:26:52;;;;;;;27.65;8.77;;;16.00;99.90;;;;;;5007908;28;20120;-81
2023/07/05 00:29:20;;;;;;;18.95;8.60;;;16.10;99.90;;;;;;5005996;28;20096;-82
2023/07/05 00:31:45;;;;;;;19.42;8.38;;;16.00;99.90;;;;;;5007858;28;20024;-82
2023/07/05 00:34:11;;;;;;;18.00;7.85;;;16.10;99.90;;;;;;5008281;28;20034;-82
2023/07/05 00:36:36;;;;;;;19.70;8.60;;;16.10;99.90;;;;;;4997040;28;20022;-82
2023/07/05 00:39:02;;;;;;;18.55;8.15;;;16.10;99.90;;;;;;5006986;28;20155;-81
2023/07/05 00:41:28;;;;;;;17.27;7.97;;;16.20;99.90;;;;;;5007304;28;20041;-81
2023/07/05 00:43:54;;;;;;;17.33;7.72;;;16.30;99.90;;;;;;5005067;28;20529;-81
2023/07/05 00:46:24;;;;;;;18.40;6.72;;;16.40;99.90;;;;;;5006697;28;20076;-80
2023/07/05 00:48:56;;;;;;;14.38;6.55;;;16.30;99.90;;;;;;4995696;28;20022;-81
2023/07/05 00:51:33;;;;;;;16.42;6.15;;;16.30;99.90;;;;;;5003222;28;20052;-82
2023/07/05 00:54:02;;;;;;;12.38;5.50;;;16.30;99.90;;;;;;5003642;28;20133;-81
2023/07/05 00:56:33;;;;;;;17.50;6.63;;;16.40;99.90;;;;;;5003893;28;20030;-82
2023/07/05 00:59:00;;;;;;;11.60;5.55;;;16.40;99.90;;;;;;5003531;28;20059;-81
2023/07/05 01:01:26;;;;;;;14.00;7.00;;;16.50;99.90;;;;;;4999149;28;20510;-81
2023/07/05 01:03:56;;;;;;;13.13;7.00;;;16.40;99.90;;;;;;5005969;28;20020;-81
2023/07/05 01:06:27;;;;;;;15.13;7.05;;;16.50;99.90;;;;;;5002505;28;20022;-82
2023/07/05 01:08:53;;;;;;;16.25;6.97;;;16.50;99.90;;;;;;5000395;28;20036;-81
2023/07/05 01:11:32;;;;;;;16.85;7.68;;;16.50;99.90;;;;;;5004340;28;20025;-81
2023/07/05 01:14:26;;;;;;;15.77;7.40;;;16.40;99.90;;;;;;5002545;28;20397;-81
2023/07/05 01:16:58;;;;;;;19.30;8.65;;;16.50;99.90;;;;;;5000090;28;20037;-82
2023/07/05 01:19:37;;;;;;;16.80;7.47;;;16.40;99.90;;;;;;5000151;28;20034;-82
2023/07/05 01:22:11;;;;;;;13.70;7.25;;;16.40;99.90;;;;;;5004890;28;20432;-82
2023/07/05 01:25:18;;;;;;;18.58;8.10;;;16.40;99.90;;;;;;5011605;28;20654;-82
2023/07/05 01:28:05;;;;;;;15.93;8.82;;;16.40;99.90;;;;;;5001728;28;20030;-82
2023/07/05 01:30:56;;;;;;;23.92;11.20;;;16.50;99.90;;;;;;5004947;28;20030;-82
2023/07/05 01:33:50;;;;;;;18.55;8.75;;;16.40;99.90;;;;;;4999718;28;20030;-82
2023/07/05 01:36:16;;;;;;;17.42;7.97;;;16.50;99.90;;;;;;5005970;28;20048;-82
2023/07/05 01:38:42;;;;;;;19.30;8.40;;;16.50;99.90;;;;;;5007342;28;20030;-84
2023/07/05 01:41:08;;;;;;;20.00;9.35;;;16.50;99.90;;;;;;5005273;28;20025;-83
2023/07/05 01:43:38;;;;;;;14.75;9.23;;;16.60;99.90;;;;;;5003826;28;20105;-82
2023/07/05 01:46:13;;;;;;;18.52;9.10;;;16.70;99.90;;;;;;4998065;28;20041;-83
2023/07/05 01:49:03;;;;;;;15.93;9.90;;;16.70;99.90;;;;;;5002170;28;20037;-82
2023/07/05 01:51:47;;;;;;;14.18;9.32;;;16.80;99.90;;;;;;5003514;28;20030;-82
2023/07/05 01:54:27;;;;;;;15.45;6.75;;;16.90;99.90;;;;;;5008827;28;20116;-83
2023/07/05 01:57:11;;;;;;;16.70;7.78;;;16.90;99.90;;;;;;4999204;28;20052;-83
2023/07/05 01:59:58;;;;;;;14.25;7.50;;;17.00;99.90;;;;;;5002758;28;20044;-80
2023/07/05 02:02:33;;;;;;;13.55;7.00;;;17.00;99.90;;;;;;5005518;28;20036;-82
2023/07/05 02:05:02;;;;;;;9.57;6.28;;;17.70;99.90;;;;;;5012594;28;20027;-83
2023/07/05 02:07:30;;;;;;;18.65;8.20;;;17.80;99.90;;;;;;5008863;28;20436;-83
2023/07/05 02:09:56;;;;;;;10.82;7.45;;;17.80;99.90;;;;;;5004205;28;20057;-83
2023/07/05 02:12:26;;;;;;;10.77;4.72;;;17.90;99.90;;;;;;5004511;28;20060;-81
2023/07/05 02:14:52;;;;;;;9.60;5.95;;;17.90;99.90;;;;;;5004122;28;20790;-83
2023/07/05 02:17:19;;;;;;;14.00;6.80;;;17.90;99.90;;;;;;5019818;28;20457;-83
2023/07/05 02:19:45;;;;;;;14.10;7.75;;;17.90;99.90;;;;;;5002617;28;20022;-83
2023/07/05 02:22:11;;;;;;;10.18;6.10;;;18.00;99.90;;;;;;4999393;28;20029;-80
2023/07/05 02:24:37;;;;;;;12.40;7.03;;;18.10;99.90;;;;;;5000829;28;20101;-83
2023/07/05 02:27:03;;;;;;;13.00;7.32;;;18.00;99.90;;;;;;5002118;28;20076;-82
2023/07/05 02:29:32;;;;;;;10.20;7.72;;;18.10;99.90;;;;;;5000498;28;20445;-81
2023/07/05 02:31:58;;;;;;;9.35;6.43;;;18.20;99.90;;;;;;5005977;28;20524;-82
2023/07/05 02:34:25;;;;;;;9.95;5.53;;;18.20;99.90;;;;;;5003339;28;20804;-82
2023/07/05 02:36:51;;;;;;;15.50;4.05;;;18.20;99.90;;;;;;5006782;28;20014;-83
2023/07/05 02:39:16;;;;;;;10.27;6.47;;;18.20;99.90;;;;;;5007604;28;20269;-82
2023/07/05 02:41:42;;;;;;;4.35;3.90;;;18.10;99.90;;;;;;5008768;28;20121;-83
2023/07/05 02:44:08;;;;;;;9.48;5.50;;;18.10;99.90;;;;;;5005633;28;20025;-83
2023/07/05 02:46:33;;;;;;;5.97;4.38;;;18.10;99.90;;;;;;5005286;28;20034;-84
2023/07/05 02:48:59;;;;;;;4.30;3.90;;;18.20;99.90;;;;;;5003211;28;20025;-81
2023/07/05 02:51:27;;;;;;;4.72;2.60;;;18.10;99.90;;;;;;5009017;28;20479;-83
2023/07/05 02:53:52;;;;;;;8.27;2.78;;;18.10;99.90;;;;;;5010646;28;20381;-84
2023/07/05 02:56:18;;;;;;;4.00;2.55;;;18.20;99.90;;;;;;5004171;28;20029;-80
2023/07/05 02:58:44;;;;;;;4.25;2.30;;;18.20;99.90;;;;;;5009864;28;20038;-82
2023/07/05 03:01:10;;;;;;;6.15;3.83;;;18.10;99.90;;;;;;5003961;28;20033;-82
2023/07/05 03:03:36;;;;;;;4.57;2.03;;;18.00;99.90;;;;;;5004598;28;20032;-84
2023/07/05 03:06:01;;;;;;;4.05;3.47;;;18.10;99.90;;;;;;5005877;28;20362;-83
2023/07/05 03:08:28;;;;;;;10.27;5.18;;;18.10;99.90;;;;;;5020289;28;20018;-84
2023/07/05 03:11:00;;;;;;;7.22;2.72;;;18.10;99.90;;;;;;5009821;28;20026;-82
2023/07/05 03:13:30;;;;;;;3.75;2.50;;;18.10;99.90;;;;;;5007978;28;20159;-83
2023/07/05 03:15:57;;;;;;;8.75;3.85;;;18.00;99.90;;;;;;5007997;28;20026;-84
2023/07/05 03:18:26;;;;;;;3.45;3.22;;;18.10;99.90;;;;;;5006613;28;20037;-84
2023/07/05 03:20:53;;;;;;;2.60;2.40;;;18.00;99.90;;;;;;5027927;28;20036;-83
2023/07/05 03:23:19;;;;;;;7.55;1.70;;;17.90;99.90;;;;;;5009615;28;20172;-83
2023/07/05 03:25:59;;;;;;;1.70;1.60;;;17.80;99.90;;;;;;5004848;28;20359;-84
2023/07/05 03:28:29;;;;;;;2.67;1.48;;;17.80;99.90;;;;;;5004702;28;20025;-83
2023/07/05 03:31:01;;;;;;;3.35;1.63;;;17.70;99.90;;;;;;5006124;28;20367;-83
2023/07/05 03:33:27;;;;;;;4.13;1.23;;;17.60;99.90;;;;;;5007252;28;20037;-84
2023/07/05 03:35:57;;;;;;;2.95;1.52;;;17.40;99.90;;;;;;4999625;28;20073;-82
2023/07/05 03:38:25;;;;;;;7.93;1.80;;;17.30;99.90;;;;;;5006462;28;20394;-83
2023/07/05 03:41:24;;;;;;;2.75;1.60;;;17.20;99.90;;;;;;5008603;28;20041;-84
2023/07/05 03:43:54;;;;;;;3.15;1.60;;;17.00;99.90;;;;;;5004916;28;20232;-86
2023/07/05 03:46:20;;;;;;;2.78;1.75;;;16.90;99.90;;;;;;5006245;28;20037;-81
2023/07/05 03:48:46;;;;;;;2.47;1.73;;;16.90;99.90;;;;;;5011617;28;20026;-85
2023/07/05 03:51:13;;;;;;;2.30;2.08;;;16.90;99.90;;;;;;5021343;28;20033;-84
2023/07/05 03:53:39;;;;;;;5.90;1.60;;;16.90;99.90;;;;;;5012800;28;20026;-84
2023/07/05 03:56:08;;;;;;;6.78;2.05;;;16.80;99.90;;;;;;5014276;28;20055;-80
2023/07/05 03:58:35;;;;;;;5.20;1.73;;;16.80;99.90;;;;;;5018240;28;20037;-83
2023/07/05 04:01:03;;;;;;;2.40;2.10;;;16.80;99.90;;;;;;5010538;28;20022;-85
2023/07/05 04:03:32;;;;;;;5.53;1.70;;;16.60;99.90;;;;;;5010395;28;20030;-85
2023/07/05 04:05:58;;;;;;;7.18;2.10;;;16.60;99.90;;;;;;5006875;28;20016;-82
2023/07/05 04:08:23;;;;;;;3.22;1.90;;;16.60;99.90;;;;;;5011116;28;20540;-86
2023/07/05 04:10:49;;;;;;;2.60;1.95;;;16.40;99.90;;;;;;5009185;28;20020;-85
2023/07/05 04:13:14;;;;;;;2.53;1.90;;;16.50;99.90;;;;;;5010316;28;20060;-86
2023/07/05 04:15:40;;;;;;;4.85;2.53;;;16.40;99.90;;;;;;5019168;28;20026;-85
2023/07/05 04:18:06;;;;;;;2.88;2.30;;;16.30;99.90;;;;;;5006965;28;20378;-82
2023/07/05 04:20:32;;;;;;;5.63;2.55;;;16.20;99.90;;;;;;5004876;28;20026;-85
2023/07/05 04:22:59;;;;;;;3.03;2.33;;;16.20;99.90;;;;;;5029265;28;20064;-83
2023/07/05 04:25:25;;;;;;;3.78;2.28;;;16.10;99.90;;;;;;5027197;28;20032;-85
2023/07/05 04:27:51;;;;;;;4.43;2.40;;;16.10;99.90;;;;;;5013775;28;20385;-85
2023/07/05 04:30:16;;;;;;;3.15;2.10;;;16.10;99.90;;;;;;5013852;28;20025;-84
2023/07/05 04:32:42;;;;;;;3.00;2.20;;;16.20;99.90;;;;;;5012005;28;20022;-83
2023/07/05 04:35:08;;;;;;;7.15;2.60;;;16.00;99.90;;;;;;5006508;28;20026;-83
2023/07/05 04:37:33;;;;;;;9.00;2.78;;;16.10;99.90;;;;;;5006443;28;20076;-81
2023/07/05 04:40:02;;;;;;;4.40;2.03;;;16.00;99.90;;;;;;5006169;28;20017;-85
2023/07/05 04:42:29;;;;;;;7.20;2.50;;;16.00;99.90;;;;;;5002662;28;20034;-77
2023/07/05 04:44:54;;;;;;;6.30;2.67;;;16.10;99.90;;;;;;4993394;28;20088;-77
2023/07/05 04:47:20;;;;;;;4.85;2.75;;;16.10;99.90;;;;;;4999298;28;20025;-77
2023/07/05 04:49:47;;;;;;;5.60;2.60;;;16.00;99.90;;;;;;5003319;28;20062;-77
2023/07/05 04:52:13;;;;;;;3.63;2.00;;;16.10;99.90;;;;;;5000257;28;20030;-78
2023/07/05 04:54:38;;;;;;;2.95;2.25;;;16.10;99.90;;;;;;5003803;28;20029;-78
2023/07/05 04:57:05;;;;;;;4.78;2.28;;;16.10;99.90;;;;;;5007244;28;20025;-78
2023/07/05 04:59:30;;;;;;;5.03;2.60;;;16.20;99.90;;;;;;5004134;28;20381;-78
2023/07/05 05:01:56;;;;;;;4.20;2.67;;;16.30;99.90;;;;;;5004169;28;20137;-77
2023/07/05 05:04:22;;;;;;;4.20;2.30;;;16.30;99.90;;;;;;5003342;28;20041;-78
2023/07/05 05:06:47;;;;;;;4.15;2.63;;;16.20;99.90;;;;;;5004891;28;20497;-81
2023/07/05 05:09:13;;;;;;;4.65;2.85;;;16.30;99.90;;;;;;5005219;28;20127;-84
2023/07/05 05:11:39;;;;;;;5.90;2.63;;;16.30;99.90;;;;;;5007145;28;20061;-82
2023/07/05 05:14:04;;;;;;;3.55;2.60;;;16.30;99.90;;;;;;4999783;28;21394;-83
2023/07/05 05:16:30;;;;;;;9.43;3.15;;;16.30;99.90;;;;;;4994560;28;20033;-83
2023/07/05 05:18:55;;;;;;;7.43;2.80;;;16.40;99.90;;;;;;5006524;28;20071;-84
2023/07/05 05:21:21;;;;;;;4.35;2.28;;;16.30;99.90;;;;;;5003199;28;20480;-81
2023/07/05 05:23:47;;;;;;;6.40;2.47;;;16.40;99.90;;;;;;5002532;28;20069;-83
2023/07/05 05:26:12;;;;;;;3.97;2.70;;;16.30;99.90;;;;;;5006163;28;20033;-86
2023/07/05 05:28:38;;;;;;;4.57;2.53;;;16.50;99.90;;;;;;5008943;28;20101;-87
2023/07/05 05:31:09;;;;;;;6.22;3.22;;;16.30;99.90;;;;;;5009695;28;20018;-81
2023/07/05 05:33:35;;;;;;;7.13;3.13;;;16.70;99.90;;;;;;5005568;28;20108;-87
2023/07/05 05:36:02;;;;;;;5.30;2.67;;;16.60;99.90;;;;;;5005317;28;20025;-82
2023/07/05 05:38:27;;;;;;;6.47;3.00;;;16.40;99.90;;;;;;5005696;28;20037;-81
2023/07/05 05:41:01;;;;;;;3.97;2.50;;;16.60;99.90;;;;;;5004647;28;20119;-79
2023/07/05 05:43:26;;;;;;;8.32;2.80;;;16.50;99.90;;;;;;5003248;28;20108;-77
2023/07/05 05:45:52;;;;;;;6.68;2.53;;;16.20;99.90;;;;;;5004753;28;20112;-79
2023/07/05 05:48:17;;;;;;;6.00;2.67;;;16.50;99.90;;;;;;5000063;28;20038;-81
2023/07/05 05:50:43;;;;;;;5.88;2.70;;;16.40;99.90;;;;;;5008184;28;20025;-82
2023/07/05 05:53:12;;;;;;;6.05;3.10;;;16.40;99.90;;;;;;5011269;28;20029;-81
2023/07/05 05:55:39;;;;;;;4.55;3.28;;;16.30;99.90;;;;;;5010934;28;20459;-78
2023/07/05 05:58:05;;;;;;;3.50;2.53;;;16.30;99.90;;;;;;5006481;28;21232;-82
2023/07/05 06:00:33;;;;;;;4.97;2.40;;;16.20;99.90;;;;;;5000834;28;20026;-82
2023/07/05 06:02:59;;;;;;;5.05;2.55;;;16.40;99.90;;;;;;5007966;28;20489;-82
2023/07/05 06:05:26;;;;;;;10.23;3.28;;;16.60;99.90;;;;;;5005812;28;20067;-79
2023/07/05 06:07:53;;;;;;;9.00;2.85;;;16.50;99.90;;;;;;5006194;28;20032;-80
2023/07/05 06:10:19;;;;;;;9.15;2.70;;;16.30;99.90;;;;;;5001127;28;20502;-81
2023/07/05 06:12:44;;;;;;;6.53;1.70;;;16.50;99.90;;;;;;5008539;28;20109;-81
2023/07/05 06:15:12;;;;;;;6.70;2.92;;;16.30;99.90;;;;;;5005170;28;20029;-80
2023/07/05 06:17:38;;;;;;;5.53;2.90;;;16.40;99.90;;;;;;5005153;28;21911;-81
2023/07/05 06:20:06;;;;;;;5.40;2.28;;;16.50;99.90;;;;;;5006357;28;20060;-79
2023/07/05 06:22:33;;;;;;;5.80;2.63;;;16.50;99.90;;;;;;5002614;28;20213;-82
2023/07/05 06:24:58;;;;;;;6.03;2.65;;;16.20;99.90;;;;;;5005976;28;20494;-79
2023/07/05 06:27:25;;;;;;;4.22;2.65;;;16.20;99.90;;;;;;5013748;28;20022;-79
2023/07/05 06:29:51;;;;;;;4.15;2.30;;;16.20;99.90;;;;;;5005095;28;20680;-81
2023/07/05 06:32:17;;;;;;;7.90;2.35;;;16.30;99.90;;;;;;5009223;28;20219;-84
2023/07/05 06:34:43;;;;;;;8.73;2.75;;;16.40;99.90;;;;;;5008140;28;20053;-84
2023/07/05 06:37:08;;;;;;;4.28;2.60;;;16.50;99.90;;;;;;5006524;28;20048;-83
2023/07/05 06:39:35;;;;;;;4.45;2.17;;;16.60;99.90;;;;;;5010366;28;20040;-82
2023/07/05 06:42:01;;;;;;;5.82;2.55;;;16.60;99.90;;;;;;5010301;28;20076;-81
2023/07/05 06:44:27;;;;;;;6.90;2.83;;;16.50;99.90;;;;;;5009845;28;20025;-87
2023/07/05 06:46:52;;;;;;;4.70;2.00;;;16.60;99.90;;;;;;5011282;28;20021;-84
2023/07/05 06:49:18;;;;;;;4.10;2.63;;;16.50;99.90;;;;;;5009862;28;20820;-81
2023/07/05 06:51:46;;;;;;;7.78;2.30;;;16.30;99.90;;;;;;5030780;28;20044;-79
2023/07/05 06:54:11;;;;;;;7.07;2.45;;;16.30;99.90;;;;;;5007697;28;20045;-80
2023/07/05 06:56:37;;;;;;;3.90;2.42;;;16.40;99.90;;;;;;5002062;28;20030;-80
2023/07/05 06:59:03;;;;;;;5.28;1.92;;;16.30;99.90;;;;;;5009460;28;20184;-80
2023/07/05 07:01:28;;;;;;;4.82;2.78;;;16.30;99.90;;;;;;5010325;28;20026;-80
2023/07/05 07:03:54;;;;;;;4.70;2.28;;;16.30;99.90;;;;;;5010574;28;20377;-78
2023/07/05 07:06:20;;;;;;;10.60;2.88;;;16.20;99.90;;;;;;5008654;28;20121;-79
2023/07/05 07:08:45;;;;;;;7.30;2.50;;;16.20;99.90;;;;;;5027284;28;20015;-80
2023/07/05 07:11:13;;;;;;;6.90;3.10;;;16.20;99.90;;;;;;5006137;28;20299;-81
2023/07/05 07:13:39;;;;;;;5.75;2.80;;;16.40;99.90;;;;;;5005776;28;20018;-80
2023/07/05 07:16:08;;;;;;;10.40;2.35;;;16.30;99.90;;;;;;5007915;28;20084;-80
2023/07/05 07:18:37;;;;;;;3.85;1.92;;;16.40;99.90;;;;;;5011750;28;20041;-80
2023/07/05 07:21:05;;;;;;;5.28;1.58;;;16.40;99.90;;;;;;5002199;28;20022;-77
2023/07/05 07:23:31;;;;;;;5.57;2.40;;;16.50;99.90;;;;;;5007709;28;20464;-80
2023/07/05 07:26:08;;;;;;;7.00;2.55;;;16.70;99.90;;;;;;5005349;28;20047;-79
2023/07/05 07:28:35;;;;;;;6.28;2.03;;;16.80;99.90;;;;;;5008304;28;20030;-80
2023/07/05 07:31:14;;;;;;;7.85;2.85;;;16.80;99.90;;;;;;5015458;28;20037;-80
2023/07/05 07:33:40;;;;;;;5.22;2.20;;;16.80;99.90;;;;;;5005287;28;20842;-86
2023/07/05 07:36:18;;;;;;;3.42;1.67;;;16.90;99.90;;;;;;5014307;28;20152;-92
2023/07/05 07:38:44;;;;;;;5.43;2.13;;;17.10;99.90;;;;;;5009248;28;20026;-84
2023/07/05 07:41:14;;;;;;;3.13;1.67;;;17.10;99.90;;;;;;5014926;28;20100;-87
2023/07/05 07:43:40;;;;;;;3.42;1.90;;;16.90;99.90;;;;;;5014679;28;20732;-82
2023/07/05 07:46:11;;;;;;;4.63;1.95;;;17.00;99.90;;;;;;5003207;28;20026;-80
2023/07/05 07:48:39;;;;;;;4.13;1.42;;;17.00;99.90;;;;;;5005334;28;20072;-81
2023/07/05 07:51:04;;;;;;;2.92;1.83;;;17.00;99.90;;;;;;5000858;28;20565;-86
2023/07/05 07:53:30;;;;;;;3.60;1.45;;;17.10;99.90;;;;;;5011168;28;20026;-88
2023/07/05 07:55:57;;;;;;;5.43;2.05;;;17.20;99.90;;;;;;5015252;28;20026;-83
2023/07/05 07:58:22;;;;;;;2.38;1.52;;;17.10;99.90;;;;;;5014924;28;20124;-83
2023/07/05 08:00:48;;;;;;;39.83;12.75;;;17.00;99.90;;;;;;5007162;28;20128;-78
2023/07/05 08:03:13;;;;;;;4.55;2.05;;;17.00;99.90;;;;;;5014416;28;20639;-78
2023/07/05 08:05:41;;;;;;;5.95;2.25;;;17.00;99.90;;;;;;5017623;28;20030;-81
2023/07/05 08:08:09;;;;;;;3.33;1.45;;;17.10;99.90;;;;;;5002973;28;20033;-80
2023/07/05 08:10:34;;;;;;;5.22;1.63;;;17.10;99.90;;;;;;5006680;28;20036;-79
2023/07/05 08:13:00;;;;;;;2.60;1.70;;;17.10;99.90;;;;;;5006364;28;20045;-77
2023/07/05 08:15:26;;;;;;;6.78;2.00;;;17.30;99.90;;;;;;5018271;28;20018;-82
2023/07/05 08:17:52;;;;;;;1.60;1.40;;;17.30;99.90;;;;;;4998358;28;20468;-82
2023/07/05 08:20:17;;;;;;;3.33;1.40;;;17.40;99.90;;;;;;5001176;28;20434;-80
2023/07/05 08:22:43;;;;;;;4.80;1.77;;;17.30;99.90;;;;;;5001374;28;20023;-82
2023/07/05 08:25:09;;;;;;;4.43;1.38;;;17.10;99.90;;;;;;5006960;28;20482;-82
2023/07/05 08:27:37;;;;;;;4.70;1.60;;;17.00;99.90;;;;;;5010046;28;20021;-84
2023/07/05 08:30:03;;;;;;;2.67;1.35;;;17.00;99.90;;;;;;5004663;28;20041;-83
2023/07/05 08:32:28;;;;;;;3.67;1.95;;;17.00;99.90;;;;;;4997147;28;20474;-77
2023/07/05 08:34:54;;;;;;;3.97;1.55;;;16.80;99.90;;;;;;5003454;28;20018;-77
2023/07/05 08:37:20;;;;;;;3.60;1.50;;;16.90;99.90;;;;;;5001091;28;20048;-82
2023/07/05 08:39:48;;;;;;;2.70;1.55;;;16.90;99.90;;;;;;5003909;28;20040;-82
2023/07/05 08:42:30;;;;;;;3.40;1.63;;;17.00;99.90;;;;;;5105268;22;20061;-80
2023/07/05 08:45:12;;;;;;;4.60;1.37;;;17.00;99.90;;;;;;4972302;28;20041;-81
2023/07/05 08:47:46;;;;;;;7.60;1.88;;;17.10;99.90;;;;;;5003258;28;20023;-82
2023/07/05 08:50:50;;;;;;;3.25;1.48;;;17.00;99.90;;;;;;4970565;28;20042;-82
2023/07/05 08:53:19;;;;;;;;;;;16.90;99.90;;;;;;4939028;28;20050;-80
2023/07/05 08:55:50;;;;;;;2.45;1.65;;;17.10;99.90;;;;;;4957083;28;20366;-80
2023/07/05 08:58:22;;;;;;;5.95;1.60;;;17.40;99.90;;;;;;4972028;28;20035;-88
2023/07/05 09:01:03;;;;;;;6.15;1.75;;;17.80;99.90;;;;;;4976609;28;20553;-81
2023/07/05 09:03:30;;;;;;;2.70;1.80;;;18.20;99.90;;;;;;4976411;28;20425;-90
2023/07/05 09:06:21;;;;;;;2.13;1.77;;;17.90;99.90;;;;;;4963584;28;20026;-85
2023/07/05 09:12:24;;;;;;;7.20;2.15;;;17.90;99.90;;;;;;5024847;23;20600;-87
2023/07/05 09:15:04;;;;;;;5.00;1.98;;;18.00;99.90;;;;;;4978817;28;20026;-82
2023/07/05 09:17:54;;;;;;;2.90;1.60;;;18.00;99.90;;;;;;4977479;28;20057;-79
2023/07/05 09:20:24;;;;;;;3.35;1.60;;;18.00;99.90;;;;;;4979768;28;20037;-86
2023/07/05 09:22:51;;;;;;;1.58;1.20;;;17.90;99.90;;;;;;4978071;28;20050;-84
2023/07/05 09:25:21;;;;;;;2.45;1.40;;;17.60;99.90;;;;;;4981441;28;20030;-90
2023/07/05 09:27:51;;;;;;;5.68;1.50;;;17.80;99.90;;;;;;4976738;28;20023;-87
2023/07/05 09:30:25;;;;;;;3.60;1.73;;;17.70;99.90;;;;;;4978180;28;20034;-85
2023/07/05 09:33:05;;;;;;;4.32;1.35;;;17.70;99.90;;;;;;4980312;28;20035;-86
2023/07/05 09:35:35;;;;;;;6.60;1.73;;;17.80;99.90;;;;;;4976012;28;20038;-81
2023/07/05 09:38:00;;;;;;;3.58;1.55;;;17.70;99.90;;;;;;4979264;28;20048;-81
2023/07/05 09:40:31;;;;;;;6.88;2.13;;;17.70;99.90;;;;;;4976651;28;20018;-80
2023/07/05 09:43:10;;;;;;;7.60;1.92;;;17.80;99.90;;;;;;4972226;28;20030;-82
2023/07/05 09:45:35;;;;;;;5.43;1.73;;;17.90;99.90;;;;;;4975010;28;20430;-78
2023/07/05 09:48:03;;;;;;;3.90;1.77;;;18.10;99.90;;;;;;4974916;28;20034;-80
2023/07/05 09:50:30;;;;;;;5.75;1.90;;;18.20;99.90;;;;;;4965838;28;20181;-78
2023/07/05 09:53:22;;;;;;;4.53;1.98;;;18.40;99.90;;;;;;4975996;28;20183;-77
2023/07/05 09:56:12;;;;;;;8.18;2.10;;;18.60;99.90;;;;;;4975179;28;20052;-78
2023/07/05 09:58:39;;;;;;;7.38;2.20;;;18.60;99.90;;;;;;4978956;28;20057;-80
2023/07/05 10:01:11;;;;;;;3.28;1.67;;;18.70;99.90;;;;;;4984456;28;20078;-81
2023/07/05 10:03:47;;;;;;;4.13;1.60;;;18.70;99.90;;;;;;4979795;28;20286;-77
2023/07/05 10:06:22;;;;;;;9.88;1.80;;;18.80;99.90;;;;;;4973140;28;20041;-80
2023/07/05 10:08:51;;;;;;;10.45;2.00;;;18.90;99.90;;;;;;4976756;28;20035;-84
2023/07/05 10:11:33;;;;;;;5.88;1.92;;;18.80;99.90;;;;;;4972623;28;20030;-80
2023/07/05 10:14:20;;;;;;;10.23;2.15;;;18.90;99.90;;;;;;4992353;28;20042;-78
2023/07/05 10:16:52;;;;;;;6.10;1.77;;;18.90;99.90;;;;;;4976664;28;20154;-78
2023/07/05 10:19:22;;;;;;;7.23;1.87;;;18.90;99.90;;;;;;4977554;28;20105;-79
2023/07/05 10:21:48;;;;;;;6.72;1.80;;;18.80;99.90;;;;;;4979560;28;20093;-78
2023/07/05 10:24:18;;;;;;;9.85;2.08;;;18.80;99.90;;;;;;4979213;28;20022;-78
2023/07/05 10:26:43;;;;;;;6.70;1.88;;;18.80;99.90;;;;;;4978884;28;20026;-78
2023/07/05 10:29:10;;;;;;;14.82;1.65;;;18.80;99.90;;;;;;4974286;28;20432;-80
2023/07/05 10:31:54;;;;;;;4.53;1.85;;;18.80;99.90;;;;;;4977080;28;20109;-82
2023/07/05 10:34:23;;;;;;;2.28;1.58;;;18.90;99.90;;;;;;4978346;28;20026;-78
2023/07/05 10:36:50;;;;;;;8.10;1.88;;;19.00;99.90;;;;;;4976174;28;20027;-76
2023/07/05 10:39:22;;;;;;;3.63;1.67;;;18.90;99.30;;;;;;4971941;28;20128;-78
2023/07/05 10:41:54;;;;;;;7.00;1.75;;;18.80;99.50;;;;;;4990984;28;20034;-81
2023/07/05 10:44:39;;;;;;;2.40;1.33;;;18.70;99.90;;;;;;4972059;28;20399;-78
2023/07/05 10:47:05;;;;;;;7.45;1.75;;;18.70;99.90;;;;;;4976116;28;20286;-80
2023/07/05 10:49:35;;;;;;;5.95;2.00;;;18.80;99.90;;;;;;4982822;28;20029;-81
2023/07/05 10:52:10;;;;;;;3.58;1.38;;;19.30;99.90;;;;;;4973056;28;20026;-80
2023/07/05 10:54:44;;;;;;;3.40;1.83;;;20.20;98.70;;;;;;4977770;28;20446;-77
2023/07/05 10:57:21;;;;;;;6.53;1.40;;;21.00;96.50;;;;;;4994260;28;20085;-77
2023/07/05 10:59:58;;;;;;;2.83;1.42;;;21.40;93.30;;;;;;4973900;28;20035;-83
2023/07/05 11:02:40;;;;;;;4.68;1.80;;;21.70;90.50;;;;;;4976605;28;20606;-81
2023/07/05 11:05:41;;;;;;;4.82;1.60;;;21.10;89.70;;;;;;4961629;28;20484;-83
2023/07/05 11:08:23;;;;;;;10.75;1.30;;;21.10;90.10;;;;;;4959062;28;20063;-84
2023/07/05 11:10:52;;;;;;;7.35;1.83;;;20.80;89.60;;;;;;4962280;28;20268;-84
2023/07/05 11:13:23;;;;;;;10.68;1.45;;;20.30;90.40;;;;;;4963247;28;20035;-79
2023/07/05 11:15:49;;;;;;;3.53;1.25;;;20.40;91.50;;;;;;4961505;28;20024;-84
2023/07/05 11:18:22;;;;;;;4.85;1.40;;;20.30;91.10;;;;;;4979107;28;20471;-82
2023/07/05 11:20:54;;;;;;;4.85;1.48;;;20.60;90.90;;;;;;4964303;28;20162;-78
2023/07/05 11:23:42;;;;;;;6.53;1.70;;;21.40;90.60;;;;;;4964568;28;20042;-86
2023/07/05 11:26:08;;;;;;;6.05;1.92;;;21.70;86.70;;;;;;4966998;28;20030;-83
2023/07/05 11:28:39;;;;;;;5.32;1.50;;;22.00;86.60;;;;;;4967103;28;20054;-87
2023/07/05 11:31:08;;;;;;;10.00;1.63;;;22.00;84.10;;;;;;4971290;28;20042;-81
2023/07/05 11:33:35;;;;;;;7.07;1.40;;;21.60;84.20;;;;;;4971525;28;20058;-83
2023/07/05 11:36:08;;;;;;;10.63;1.52;;;21.90;85.10;;;;;;4971203;28;20034;-83
2023/07/05 11:38:40;;;;;;;4.05;1.45;;;21.60;81.60;;;;;;4964065;28;20117;-82
2023/07/05 11:41:09;;;;;;;6.25;0.98;;;21.60;82.70;;;;;;4964887;28;20031;-82
2023/07/05 11:43:36;;;;;;;5.05;1.70;;;21.90;80.00;;;;;;4965444;28;20475;-80
2023/07/05 11:46:23;;;;;;;3.97;1.30;;;21.90;80.20;;;;;;4960451;28;20110;-87
2023/07/05 11:48:51;;;;;;;7.22;1.52;;;22.30;79.80;;;;;;4960299;28;20099;-88
2023/07/05 11:51:33;;;;;;;2.97;1.02;;;22.50;80.90;;;;;;4964266;28;20145;-77
2023/07/05 11:54:01;;;;;;;9.53;1.60;;;22.30;77.40;;;;;;4958821;28;20062;-83
2023/07/05 11:56:29;;;;;;;4.70;1.20;;;22.50;78.60;;;;;;4961448;28;20193;-81
2023/07/05 11:58:56;;;;;;;7.78;1.10;;;22.20;77.90;;;;;;4961118;28;20034;-83
2023/07/05 12:01:30;;;;;;;3.25;1.20;;;22.10;76.40;;;;;;4969731;28;20391;-80
2023/07/05 12:04:01;;;;;;;7.20;1.15;;;21.80;77.90;;;;;;4978167;28;20015;-82
2023/07/05 12:06:53;;;;;;;12.95;1.50;;;21.70;79.10;;;;;;4969841;28;20471;-80
2023/07/05 12:09:32;;;;;;;6.57;1.23;;;21.40;76.60;;;;;;4961792;28;20520;-83
2023/07/05 12:11:58;;;;;;;8.65;1.67;;;20.90;76.90;;;;;;4964146;28;20085;-78
2023/07/05 12:14:24;;;;;;;9.48;1.65;;;20.80;79.00;;;;;;4961840;28;20029;-81
2023/07/05 12:16:53;;;;;;;9.38;1.38;;;20.70;80.10;;;;;;4960641;28;20023;-81
2023/07/05 12:19:30;;;;;;;1.90;1.20;;;20.70;80.90;;;;;;4961701;28;20039;-80
2023/07/05 12:22:04;;;;;;;6.22;1.17;;;20.70;80.10;;;;;;4962214;28;20019;-85
2023/07/05 12:24:59;;;;;;;8.80;1.50;;;21.00;79.60;;;;;;4964258;28;20019;-92
2023/07/05 12:27:28;;;;;;;3.85;1.13;;;21.30;78.90;;;;;;4955781;28;20032;-84
2023/07/05 12:29:56;;;;;;;8.68;1.73;;;21.40;78.90;;;;;;4962948;28;20085;-80
2023/07/05 12:32:27;;;;;;;8.45;1.70;;;21.70;79.20;;;;;;4948075;28;20074;-79
2023/07/05 12:35:28;;;;;;;5.32;1.30;;;22.10;78.10;;;;;;4960414;28;20122;-79
2023/07/05 12:37:55;;;;;;;4.10;1.45;;;22.00;77.60;;;;;;4944943;28;20121;-81
2023/07/05 12:40:40;;;;;;;4.03;1.30;;;21.60;75.90;;;;;;4960064;28;20058;-80
2023/07/05 12:43:08;;;;;;;7.63;1.65;;;22.10;77.40;;;;;;4958124;28;20039;-81
2023/07/05 12:45:38;;;;;;;6.72;1.75;;;22.30;73.20;;;;;;4960400;28;20034;-79
2023/07/05 12:48:25;;;;;;;6.57;1.67;;;22.10;73.00;;;;;;4959772;28;20058;-79
2023/07/05 12:51:01;;;;;;;4.13;1.48;;;22.10;73.90;;;;;;4958808;28;20027;-80
2023/07/05 12:53:26;;;;;;;10.18;2.08;;;22.60;72.80;;;;;;4958422;28;20025;-77
2023/07/05 12:56:04;;;;;;;6.82;2.00;;;23.30;74.10;;;;;;4959454;28;20023;-80
2023/07/05 12:58:35;;;;;;;9.98;1.55;;;23.50;69.70;;;;;;4958697;28;20046;-78
2023/07/05 13:01:04;;;;;;;3.33;1.73;;;23.10;71.40;;;;;;4961209;28;20054;-81
2023/07/05 13:03:34;;;;;;;2.92;2.13;;;23.30;71.70;;;;;;4961691;28;20069;-77